首页
METAR-TAF:

METAR-TAF

机场 :

干邑白蘭地, 法国

纬度: 45-40N, 经度: 000-19W, 海拔: 30米

当前天气观测

该预报发布于23分钟前的20:00 UTC
风速6节,风向东转东南
温度 10°C
湿度 87%
气压 1019 hPa
能见度10公里或以上
少量云层高于3500英尺
多云层高于4800英尺
多云层高于5600英尺

METAR: LFBG 292000Z AUTO 12006KT 9999 FEW035 BKN048 BKN056 10/08 Q1019 BECMG BKN014

时间: 21:23 (20:23 UTC)

预报

该预报发布于6小时和23分钟前的14:00 UTC
预报有效从29日的 15点(UTC)到 30日的 15点(UTC)
风速8节,风向西南
能见度10公里或以上
散云层高于4000英尺
成为
从 29日的 19点(UTC)到 29日的 21点(UTC)
风速12节,风向南转南东
多云层高于1400英尺
短暂存在
从 30日的 02点(UTC)到 30日的 09点(UTC)
能見度: 4000
多云层高于600英尺
小雨, 毛毛雨

TAF: LFBG 291400Z 2915/3015 23008KT 9999 SCT040 BECMG 2919/2921 15012KT BKN014 TEMPO 3002/3009 4000 -RADZ BKN006

超过4000个机场的气象观测和天气预报(METAR&TAF报告)。

可查询的气象台以黄色和红色小点在地图上表示。

将鼠标移到小点上方,可查看气象台名称。

然后点击查看天气观测和预报。

如需切换地图:点击带黑十字的绿色按钮放大地图;点击带横线的绿色按钮缩小地图;或者点击绿色箭头查看邻近地区的地图。


METAR-TAF: